SAOC/RCU METAR and TAF weather

Enter ICAO airport designator
Station Type Date Time Source
SAOC METAR 2019/02/23 00:00 UTC NOAA

SAOC 230000Z 20006KT 9999 SCT025TCU SCT100 25/21 Q1011


Station Type Date Time Source
SAOC Decoded METAR 2019/02/23 00:00 UTC NOAA

Rio Cuarto Aerodrome, Argentina (SAOC) 33-07S 064-14W 421M
Feb 22, 2019 - 07:00 PM EST / 2019.02.23 0000 UTC
Wind: from the SSW (200 degrees) at 7 MPH (6 KT):0
Visibility: greater than 7 mile(s):0
Sky conditions: partly cloudy
Weather: Towering cumulus clouds observed
Temperature: 77 F (25 C)
Dew Point: 69 F (21 C)
Relative Humidity: 78%
Pressure (altimeter): 29.85 in. Hg (1011 hPa)
ob: SAOC 230000Z 20006KT 9999 SCT025TCU SCT100 25/21 Q1011
cycle: 0

Station Type Date Time Source
SAOC TAF 2019/01/30 00:10 UTC NOAA

TAF SAOC 292300Z 3000/3024 18015KT 6000 TS/RASH BKN025 BKN030 FEW040CB TX36/3015Z TN24/3010Z
BECMG 3012/3015 02010KT 7000 RA/DZ BKN015 BKN020 FEW040CB


Example: see airport list